createdAt,value
2022-11-10T00:00:15.191Z,86
2022-11-10T00:01:20.380Z,86
2022-11-10T00:02:25.200Z,86
2022-11-10T00:03:29.780Z,86
2022-11-10T00:04:34.081Z,86
2022-11-10T00:05:38.158Z,86
2022-11-10T00:06:42.282Z,86
2022-11-10T00:07:48.801Z,86
2022-11-10T00:08:52.937Z,86
2022-11-10T00:09:57.013Z,86
2022-11-10T00:11:01.145Z,86
2022-11-10T00:12:05.628Z,86
2022-11-10T00:13:09.621Z,86
2022-11-10T00:14:13.958Z,86
2022-11-10T00:15:23.384Z,86
2022-11-10T00:16:32.542Z,86
2022-11-10T00:17:41.760Z,86
2022-11-10T00:18:45.738Z,86
2022-11-10T00:19:49.810Z,86
2022-11-10T00:20:53.853Z,86
2022-11-10T00:21:57.914Z,86
2022-11-10T00:23:02.015Z,86
2022-11-10T00:24:06.052Z,86
2022-11-10T00:25:10.256Z,86
2022-11-10T00:26:14.301Z,87
2022-11-10T00:27:18.521Z,86
2022-11-10T00:28:23.119Z,86
2022-11-10T00:29:27.766Z,86
2022-11-10T00:30:32.184Z,86
2022-11-10T00:31:36.228Z,86
2022-11-10T00:32:40.404Z,86
2022-11-10T00:33:44.988Z,86
2022-11-10T00:34:48.983Z,87
2022-11-10T00:35:53.081Z,87
2022-11-10T00:36:57.073Z,87
2022-11-10T00:38:01.299Z,86
2022-11-10T00:39:05.792Z,86
2022-11-10T00:40:10.345Z,86
2022-11-10T00:41:14.464Z,87
2022-11-10T00:42:18.572Z,87
2022-11-10T00:43:26.456Z,87
2022-11-10T00:44:27.597Z,87
2022-11-10T00:45:31.828Z,87
2022-11-10T00:46:35.997Z,86
2022-11-10T00:47:40.519Z,86
2022-11-10T00:48:45.073Z,87
2022-11-10T00:49:49.137Z,87
2022-11-10T00:50:53.296Z,86
2022-11-10T00:51:57.745Z,87
2022-11-10T00:53:01.753Z,86
2022-11-10T00:54:06.237Z,87
2022-11-10T00:55:10.390Z,87
2022-11-10T00:56:14.504Z,87
2022-11-10T00:57:18.853Z,87
2022-11-10T00:58:23.540Z,87
2022-11-10T00:59:27.837Z,87
2022-11-10T01:00:32.411Z,87
2022-11-10T01:01:36.526Z,86
2022-11-10T01:02:40.565Z,87
2022-11-10T01:03:44.532Z,87
2022-11-10T01:04:48.701Z,86
2022-11-10T01:05:52.788Z,86
2022-11-10T01:06:56.928Z,87
2022-11-10T01:08:01.452Z,86
2022-11-10T01:09:05.425Z,86
2022-11-10T01:10:09.528Z,86
2022-11-10T01:11:13.827Z,86
2022-11-10T01:12:18.365Z,86
2022-11-10T01:13:22.686Z,86
2022-11-10T01:14:27.000Z,86
2022-11-10T01:15:31.520Z,86
2022-11-10T01:16:36.132Z,87
2022-11-10T01:17:40.186Z,86
2022-11-10T01:18:44.705Z,86
2022-11-10T01:19:51.940Z,87
2022-11-10T01:20:56.357Z,86
2022-11-10T01:22:00.524Z,86
2022-11-10T01:23:04.601Z,87
2022-11-10T01:24:08.683Z,87
2022-11-10T01:25:13.396Z,86
2022-11-10T01:26:17.805Z,86
2022-11-10T01:27:21.837Z,86
2022-11-10T01:28:26.177Z,87
2022-11-10T01:29:30.573Z,86
2022-11-10T01:30:34.680Z,87
2022-11-10T01:31:38.729Z,87
2022-11-10T01:32:42.815Z,86
2022-11-10T01:33:46.914Z,87
2022-11-10T01:34:51.233Z,87
2022-11-10T01:35:55.480Z,86
2022-11-10T01:36:59.813Z,86
2022-11-10T01:38:04.301Z,87
2022-11-10T01:39:08.737Z,86
2022-11-10T01:40:13.346Z,86
2022-11-10T01:41:17.370Z,87
2022-11-10T01:42:21.481Z,87
2022-11-10T01:43:25.500Z,87
2022-11-10T01:44:29.628Z,86
2022-11-10T01:45:36.633Z,87
2022-11-10T01:46:50.988Z,86
2022-11-10T01:47:55.460Z,87
2022-11-10T01:48:59.485Z,87
2022-11-10T01:50:04.118Z,87
2022-11-10T01:51:08.865Z,87
2022-11-10T01:52:15.909Z,87
2022-11-10T01:53:20.907Z,87
2022-11-10T01:54:25.049Z,86
2022-11-10T01:55:35.413Z,87
2022-11-10T01:56:39.692Z,87
2022-11-10T01:57:44.078Z,87
2022-11-10T01:58:48.425Z,87
2022-11-10T01:59:52.940Z,87
2022-11-10T02:00:56.993Z,87
2022-11-10T02:02:01.049Z,86
2022-11-10T02:03:10.598Z,87
2022-11-10T02:04:19.848Z,87
2022-11-10T02:05:23.946Z,87
2022-11-10T02:06:28.063Z,87
2022-11-10T02:07:32.140Z,87
2022-11-10T02:08:36.156Z,87
2022-11-10T02:09:40.293Z,87
2022-11-10T02:10:44.356Z,87
2022-11-10T02:11:48.449Z,87
2022-11-10T02:12:52.741Z,87
2022-11-10T02:13:57.386Z,87
2022-11-10T02:15:01.633Z,87
2022-11-10T02:16:06.280Z,87
2022-11-10T02:17:10.901Z,87
2022-11-10T02:18:14.985Z,87
2022-11-10T02:19:19.465Z,87
2022-11-10T02:20:23.556Z,87
2022-11-10T02:21:27.608Z,87
2022-11-10T02:22:31.724Z,87
2022-11-10T02:23:35.784Z,87
2022-11-10T02:24:39.902Z,87
2022-11-10T02:25:44.376Z,87
2022-11-10T02:26:48.462Z,87
2022-11-10T02:27:54.990Z,87
2022-11-10T02:28:59.281Z,87
2022-11-10T02:30:03.744Z,87
2022-11-10T02:31:08.352Z,87
2022-11-10T02:32:12.380Z,88
2022-11-10T02:33:16.551Z,87
2022-11-10T02:34:20.672Z,87
2022-11-10T02:35:25.101Z,87
2022-11-10T02:36:29.181Z,87
2022-11-10T02:37:33.352Z,87
2022-11-10T02:38:37.382Z,87
2022-11-10T02:39:41.451Z,87
2022-11-10T02:40:45.565Z,87
2022-11-10T02:41:50.049Z,87
2022-11-10T02:42:54.064Z,87
2022-11-10T02:43:58.464Z,87
2022-11-10T02:45:02.811Z,87
2022-11-10T02:46:07.399Z,88
2022-11-10T02:47:11.427Z,88
2022-11-10T02:48:15.614Z,87
2022-11-10T02:49:20.075Z,87
2022-11-10T02:50:24.297Z,87
2022-11-10T02:51:28.749Z,87
2022-11-10T02:52:33.268Z,88
2022-11-10T02:53:37.800Z,88
2022-11-10T02:54:41.839Z,88
2022-11-10T02:55:46.128Z,87
2022-11-10T02:56:50.527Z,88
2022-11-10T02:57:55.025Z,87
2022-11-10T02:58:59.059Z,87
2022-11-10T03:00:03.195Z,88
2022-11-10T03:01:07.815Z,88
2022-11-10T03:02:11.971Z,88
2022-11-10T03:03:16.396Z,87
2022-11-10T03:04:20.628Z,87
2022-11-10T03:05:25.091Z,88
2022-11-10T03:06:29.774Z,87
2022-11-10T03:07:33.607Z,87
2022-11-10T03:08:37.903Z,87
2022-11-10T03:09:42.343Z,88
2022-11-10T03:10:46.472Z,88
2022-11-10T03:11:50.963Z,88
2022-11-10T03:12:54.980Z,87
2022-11-10T03:14:01.747Z,88
2022-11-10T03:15:03.067Z,87
2022-11-10T03:16:07.999Z,87
2022-11-10T03:17:12.340Z,87
2022-11-10T03:18:16.932Z,88
2022-11-10T03:19:21.420Z,88
2022-11-10T03:20:25.397Z,88
2022-11-10T03:21:29.508Z,87
2022-11-10T03:22:33.788Z,87
2022-11-10T03:23:38.071Z,87
2022-11-10T03:24:42.360Z,87
2022-11-10T03:25:46.683Z,87
2022-11-10T03:26:50.786Z,88
2022-11-10T03:27:55.443Z,88
2022-11-10T03:28:59.711Z,88
2022-11-10T03:30:04.043Z,87
2022-11-10T03:31:08.579Z,87
2022-11-10T03:32:12.552Z,87
2022-11-10T03:33:16.721Z,87
2022-11-10T03:34:20.999Z,87
2022-11-10T03:35:25.440Z,87
2022-11-10T03:36:29.949Z,87
2022-11-10T03:37:33.969Z,87
2022-11-10T03:38:37.988Z,87
2022-11-10T03:39:42.275Z,87
2022-11-10T03:41:12.354Z,87
2022-11-10T03:41:51.200Z,87
2022-11-10T03:42:55.312Z,88
2022-11-10T03:43:59.539Z,88
2022-11-10T03:45:04.065Z,88
2022-11-10T03:46:08.504Z,88
2022-11-10T03:47:12.577Z,88
2022-11-10T03:48:16.716Z,88
2022-11-10T03:49:20.741Z,87
2022-11-10T03:50:24.800Z,88
2022-11-10T03:51:28.897Z,88
2022-11-10T03:52:33.001Z,88
2022-11-10T03:53:38.378Z,87
2022-11-10T03:54:42.592Z,87
2022-11-10T03:55:47.235Z,88
2022-11-10T03:56:51.227Z,88
2022-11-10T03:57:55.327Z,88
2022-11-10T03:59:02.375Z,88
2022-11-10T04:00:06.893Z,87
2022-11-10T04:01:11.505Z,87
2022-11-10T04:02:15.892Z,87
2022-11-10T04:03:20.566Z,88
2022-11-10T04:04:25.083Z,88
2022-11-10T04:05:34.688Z,88
2022-11-10T04:06:44.160Z,88
2022-11-10T04:07:53.241Z,88
2022-11-10T04:09:02.473Z,88
2022-11-10T04:10:06.924Z,88
2022-11-10T04:11:11.080Z,88
2022-11-10T04:12:15.136Z,88
2022-11-10T04:13:24.674Z,88
2022-11-10T04:14:33.967Z,88
2022-11-10T04:15:43.105Z,88
2022-11-10T04:16:47.401Z,88
2022-11-10T04:17:51.810Z,88
2022-11-10T04:18:55.856Z,88
2022-11-10T04:20:00.178Z,88
2022-11-10T04:21:04.637Z,88
2022-11-10T04:22:09.075Z,87
2022-11-10T04:23:13.261Z,88
2022-11-10T04:24:22.872Z,88
2022-11-10T04:25:27.040Z,88
2022-11-10T04:26:31.599Z,87
2022-11-10T04:27:35.699Z,88
2022-11-10T04:28:40.180Z,88
2022-11-10T04:29:44.189Z,88
2022-11-10T04:30:48.423Z,88
2022-11-10T04:31:52.416Z,88
2022-11-10T04:32:56.613Z,88
2022-11-10T04:34:01.012Z,88
2022-11-10T04:35:05.097Z,88
2022-11-10T04:36:09.616Z,88
2022-11-10T04:37:13.820Z,88
2022-11-10T04:38:18.383Z,88
2022-11-10T04:39:22.423Z,88
2022-11-10T04:40:26.632Z,88
2022-11-10T04:41:31.007Z,88
2022-11-10T04:42:35.176Z,88
2022-11-10T04:43:39.220Z,88
2022-11-10T04:44:43.299Z,87
2022-11-10T04:45:47.762Z,87
2022-11-10T04:46:52.139Z,87
2022-11-10T04:47:56.561Z,87
2022-11-10T04:49:01.303Z,87
2022-11-10T04:50:05.732Z,87
2022-11-10T04:51:10.388Z,87
2022-11-10T04:52:14.732Z,88
2022-11-10T04:53:19.265Z,87
2022-11-10T04:54:22.964Z,87
2022-11-10T04:55:27.549Z,87
2022-11-10T04:56:31.603Z,88
2022-11-10T04:57:36.259Z,87
2022-11-10T04:58:40.679Z,88
2022-11-10T04:59:44.708Z,87
2022-11-10T05:00:48.830Z,88
2022-11-10T05:01:52.926Z,88
2022-11-10T05:02:57.569Z,88
2022-11-10T05:04:02.160Z,88
2022-11-10T05:05:06.671Z,87
2022-11-10T05:06:10.976Z,87
2022-11-10T05:07:15.506Z,87
2022-11-10T05:08:19.968Z,88
2022-11-10T05:09:24.004Z,88
2022-11-10T05:10:28.128Z,87
2022-11-10T05:11:32.187Z,88
2022-11-10T05:12:36.709Z,88
2022-11-10T05:13:41.211Z,87
2022-11-10T05:14:45.449Z,88
2022-11-10T05:15:50.385Z,87
2022-11-10T05:16:54.678Z,87
2022-11-10T05:17:59.080Z,87
2022-11-10T05:19:03.733Z,87
2022-11-10T05:20:07.917Z,87
2022-11-10T05:21:12.442Z,88
2022-11-10T05:22:16.456Z,88
2022-11-10T05:23:20.758Z,88
2022-11-10T05:24:30.190Z,87
2022-11-10T05:25:34.253Z,87
2022-11-10T05:26:38.372Z,88
2022-11-10T05:27:42.351Z,88
2022-11-10T05:28:46.523Z,88
2022-11-10T05:29:50.560Z,88
2022-11-10T05:30:54.981Z,88
2022-11-10T05:31:59.212Z,89
2022-11-10T05:33:03.821Z,88
2022-11-10T05:34:07.892Z,88
2022-11-10T05:35:12.324Z,88
2022-11-10T05:36:16.558Z,88
2022-11-10T05:37:20.615Z,88
2022-11-10T05:38:25.228Z,88
2022-11-10T05:39:29.340Z,88
2022-11-10T05:40:33.900Z,88
2022-11-10T05:41:38.337Z,87
2022-11-10T05:42:42.468Z,88
2022-11-10T05:43:46.451Z,88
2022-11-10T05:44:50.568Z,87
2022-11-10T05:45:54.711Z,88
2022-11-10T05:46:59.369Z,88
2022-11-10T05:48:03.781Z,88
2022-11-10T05:49:07.764Z,88
2022-11-10T05:50:12.056Z,88
2022-11-10T05:51:16.177Z,88
2022-11-10T05:52:20.591Z,88
2022-11-10T05:53:25.064Z,87
2022-11-10T05:54:28.764Z,89
2022-11-10T05:55:32.810Z,88
2022-11-10T05:56:36.971Z,88
2022-11-10T05:57:41.461Z,88
2022-11-10T05:58:45.480Z,88
2022-11-10T05:59:49.823Z,89
2022-11-10T06:00:54.245Z,89
2022-11-10T06:01:58.705Z,89
2022-11-10T06:03:02.975Z,89
2022-11-10T06:04:07.990Z,88
2022-11-10T06:05:13.231Z,89
2022-11-10T06:06:17.810Z,89
2022-11-10T06:07:22.360Z,89
2022-11-10T06:08:26.867Z,89
2022-11-10T06:09:31.383Z,88
2022-11-10T06:10:35.879Z,88
2022-11-10T06:11:40.097Z,88
2022-11-10T06:12:46.504Z,88
2022-11-10T06:13:48.617Z,87
2022-11-10T06:14:53.576Z,87
2022-11-10T06:15:57.793Z,88
2022-11-10T06:17:01.915Z,88
2022-11-10T06:18:06.115Z,88
2022-11-10T06:19:10.591Z,88
2022-11-10T06:20:15.146Z,88
2022-11-10T06:21:19.313Z,88
2022-11-10T06:22:23.746Z,88
2022-11-10T06:23:27.988Z,88
2022-11-10T06:24:32.675Z,88
2022-11-10T06:25:37.799Z,88
2022-11-10T06:26:42.195Z,88
2022-11-10T06:27:46.695Z,88
2022-11-10T06:28:50.818Z,88
2022-11-10T06:29:55.399Z,88
2022-11-10T06:30:59.428Z,88
2022-11-10T06:32:04.236Z,88
2022-11-10T06:33:08.370Z,88
2022-11-10T06:34:14.924Z,87
2022-11-10T06:35:19.322Z,88
2022-11-10T06:36:24.007Z,88
2022-11-10T06:37:28.449Z,88
2022-11-10T06:38:32.956Z,88
2022-11-10T06:39:37.235Z,89
2022-11-10T06:40:41.863Z,88
2022-11-10T06:41:46.242Z,88
2022-11-10T06:42:50.814Z,89
2022-11-10T06:43:55.452Z,88
2022-11-10T06:44:59.940Z,89
2022-11-10T06:46:04.563Z,88
2022-11-10T06:47:09.250Z,88
2022-11-10T06:48:13.806Z,88
2022-11-10T06:49:17.934Z,88
2022-11-10T06:50:22.547Z,88
2022-11-10T06:51:27.030Z,88
2022-11-10T06:52:31.175Z,88
2022-11-10T06:53:35.798Z,88
2022-11-10T06:54:40.303Z,89
2022-11-10T06:55:44.912Z,89
2022-11-10T06:56:49.427Z,89
2022-11-10T06:57:53.960Z,89
2022-11-10T06:58:58.471Z,89
2022-11-10T07:00:02.667Z,89
2022-11-10T07:01:07.319Z,89
2022-11-10T07:02:11.767Z,89
2022-11-10T07:03:16.071Z,88
2022-11-10T07:04:20.931Z,88
2022-11-10T07:05:24.950Z,88
2022-11-10T07:06:29.338Z,88
2022-11-10T07:07:33.795Z,89
2022-11-10T07:08:38.315Z,88
2022-11-10T07:09:43.118Z,89
2022-11-10T07:10:47.675Z,89
2022-11-10T07:11:54.475Z,89
2022-11-10T07:12:58.654Z,89
2022-11-10T07:14:02.938Z,89
2022-11-10T07:15:07.218Z,89
2022-11-10T07:16:11.367Z,89
2022-11-10T07:17:15.490Z,89
2022-11-10T07:18:20.132Z,89
2022-11-10T07:19:24.131Z,89
2022-11-10T07:20:28.250Z,89
2022-11-10T07:21:32.308Z,89
2022-11-10T07:22:36.675Z,90
2022-11-10T07:23:40.994Z,90
2022-11-10T07:24:45.181Z,90
2022-11-10T07:25:49.689Z,90
2022-11-10T07:26:54.427Z,89
2022-11-10T07:27:58.684Z,89
2022-11-10T07:29:02.874Z,89
2022-11-10T07:30:07.431Z,89
2022-11-10T07:31:12.162Z,89
2022-11-10T07:32:16.486Z,89
2022-11-10T07:33:21.154Z,89
2022-11-10T07:34:24.774Z,89
2022-11-10T07:35:30.208Z,89
2022-11-10T07:36:34.615Z,89
2022-11-10T07:37:38.963Z,89
2022-11-10T07:38:43.091Z,89
2022-11-10T07:39:47.735Z,89
2022-11-10T07:40:52.305Z,89
2022-11-10T07:41:56.835Z,89
2022-11-10T07:43:00.873Z,89
2022-11-10T07:44:05.486Z,89
2022-11-10T07:45:10.117Z,89
2022-11-10T07:46:14.727Z,89
2022-11-10T07:47:18.915Z,89
2022-11-10T07:48:23.567Z,89
2022-11-10T07:49:27.975Z,89
2022-11-10T07:50:32.477Z,89
2022-11-10T07:51:36.607Z,89
2022-11-10T07:52:40.823Z,89
2022-11-10T07:53:45.327Z,89
2022-11-10T07:54:49.935Z,89
2022-11-10T07:55:54.788Z,89
2022-11-10T07:56:59.172Z,89
2022-11-10T07:58:03.670Z,89
2022-11-10T07:59:08.517Z,89
2022-11-10T08:00:12.629Z,89
2022-11-10T08:01:17.550Z,88
2022-11-10T08:02:21.882Z,88
2022-11-10T08:03:26.257Z,88
2022-11-10T08:04:30.093Z,89
2022-11-10T08:05:34.613Z,89
2022-11-10T08:06:38.954Z,89
2022-11-10T08:07:43.224Z,89
2022-11-10T08:08:47.501Z,89
2022-11-10T08:09:52.037Z,89
2022-11-10T08:10:56.556Z,89
2022-11-10T08:12:01.181Z,89
2022-11-10T08:13:06.245Z,89
2022-11-10T08:14:10.732Z,89
2022-11-10T08:15:14.916Z,89
2022-11-10T08:16:18.949Z,89
2022-11-10T08:17:23.043Z,89
2022-11-10T08:18:30.931Z,89
2022-11-10T08:19:31.375Z,89
2022-11-10T08:20:35.655Z,89
2022-11-10T08:21:39.832Z,89
2022-11-10T08:22:44.537Z,89
2022-11-10T08:23:49.048Z,89
2022-11-10T08:24:53.865Z,89
2022-11-10T08:25:58.156Z,89
2022-11-10T08:27:02.629Z,89
2022-11-10T08:28:06.784Z,89
2022-11-10T08:29:16.518Z,89
2022-11-10T08:30:24.066Z,89
2022-11-10T08:31:28.250Z,89
2022-11-10T08:32:39.829Z,89
2022-11-10T08:33:43.946Z,89
2022-11-10T08:34:48.519Z,89
2022-11-10T08:35:52.538Z,89
2022-11-10T08:36:57.213Z,89
2022-11-10T08:38:05.292Z,89
2022-11-10T08:39:09.170Z,89
2022-11-10T08:40:13.536Z,89
2022-11-10T08:41:17.553Z,89
2022-11-10T08:42:21.655Z,89
2022-11-10T08:43:26.622Z,89
2022-11-10T08:44:30.797Z,89
2022-11-10T08:45:35.038Z,89
2022-11-10T08:46:39.706Z,89
2022-11-10T08:47:44.650Z,89
2022-11-10T08:48:49.518Z,89
2022-11-10T08:49:53.975Z,89
2022-11-10T08:50:58.442Z,89
2022-11-10T08:52:03.200Z,89
2022-11-10T08:53:07.586Z,89
2022-11-10T08:54:12.282Z,89
2022-11-10T08:56:18.749Z,89
2022-11-10T08:58:23.050Z,89
2022-11-10T08:59:27.478Z,89
2022-11-10T09:00:31.698Z,89
2022-11-10T09:01:36.190Z,89
2022-11-10T09:02:40.813Z,89
2022-11-10T09:03:45.653Z,89
2022-11-10T09:04:50.128Z,89
2022-11-10T09:05:58.153Z,89
2022-11-10T09:06:59.313Z,89
2022-11-10T09:08:03.975Z,89
2022-11-10T09:09:08.436Z,89
2022-11-10T09:10:12.792Z,88
2022-11-10T09:11:17.060Z,88
2022-11-10T09:12:21.732Z,89
2022-11-10T09:13:29.759Z,89
2022-11-10T09:14:30.945Z,89
2022-11-10T09:15:35.297Z,89
2022-11-10T09:16:40.389Z,89
2022-11-10T09:17:44.968Z,89
2022-11-10T09:18:49.644Z,89
2022-11-10T09:19:54.336Z,89
2022-11-10T09:20:58.963Z,89
2022-11-10T09:22:04.015Z,89
2022-11-10T09:23:08.486Z,88
2022-11-10T09:24:15.623Z,88
2022-11-10T09:25:20.206Z,89
2022-11-10T09:26:24.986Z,88
2022-11-10T09:27:29.601Z,88
2022-11-10T09:28:37.506Z,88
2022-11-10T09:29:42.102Z,88
2022-11-10T09:30:46.797Z,89
2022-11-10T09:31:51.206Z,88
2022-11-10T09:32:55.938Z,88
2022-11-10T09:34:00.475Z,88
2022-11-10T09:35:05.183Z,87
2022-11-10T09:36:09.775Z,88
2022-11-10T09:37:14.375Z,87
2022-11-10T09:38:19.644Z,87
2022-11-10T09:39:24.006Z,88
2022-11-10T09:40:28.620Z,88
2022-11-10T09:41:43.319Z,87
2022-11-10T09:42:47.957Z,88
2022-11-10T09:43:52.474Z,88
2022-11-10T09:45:01.871Z,88
2022-11-10T09:46:11.847Z,89
2022-11-10T09:47:29.351Z,88
2022-11-10T09:48:23.963Z,88
2022-11-10T09:49:30.679Z,88
2022-11-10T09:50:40.416Z,88
2022-11-10T09:51:48.511Z,88
2022-11-10T09:52:52.082Z,88
2022-11-10T09:53:56.575Z,88
2022-11-10T09:55:04.198Z,88
2022-11-10T09:56:18.985Z,88
2022-11-10T09:57:28.618Z,88
2022-11-10T09:58:33.215Z,88
2022-11-10T09:59:43.462Z,88
2022-11-10T10:00:47.987Z,88
2022-11-10T10:01:52.544Z,88
2022-11-10T10:02:56.682Z,88
2022-11-10T10:04:04.277Z,88
2022-11-10T10:05:14.300Z,87
2022-11-10T10:06:23.907Z,88
2022-11-10T10:07:28.418Z,88
2022-11-10T10:08:43.083Z,88
2022-11-10T10:09:52.704Z,88
2022-11-10T10:11:02.498Z,88
2022-11-10T10:12:15.039Z,87
2022-11-10T10:13:30.044Z,87
2022-11-10T10:14:42.731Z,88
2022-11-10T10:15:47.910Z,88
2022-11-10T10:16:57.240Z,88
2022-11-10T10:18:02.003Z,88
2022-11-10T10:19:16.552Z,88
2022-11-10T10:20:24.180Z,88
2022-11-10T10:21:36.724Z,87
2022-11-10T10:22:52.735Z,87
2022-11-10T10:24:13.740Z,88
2022-11-10T10:25:07.055Z,88
2022-11-10T10:26:16.783Z,87
2022-11-10T10:27:23.934Z,87
2022-11-10T10:28:28.551Z,87
2022-11-10T10:29:37.163Z,87
2022-11-10T10:30:45.871Z,87
2022-11-10T10:31:50.501Z,87
2022-11-10T10:32:54.939Z,87
2022-11-10T10:33:59.627Z,87
2022-11-10T10:35:04.131Z,87
2022-11-10T10:36:08.787Z,87
2022-11-10T10:37:16.327Z,86
2022-11-10T10:38:21.373Z,86
2022-11-10T10:39:28.587Z,86
2022-11-10T10:40:35.751Z,86
2022-11-10T10:41:40.522Z,86
2022-11-10T10:42:45.002Z,87
2022-11-10T10:43:49.746Z,86
2022-11-10T10:44:54.532Z,86
2022-11-10T10:46:09.109Z,86
2022-11-10T10:47:13.858Z,87
2022-11-10T10:48:18.623Z,87
2022-11-10T10:49:28.936Z,87
2022-11-10T10:50:30.665Z,86
2022-11-10T10:51:35.275Z,86
2022-11-10T10:52:39.890Z,86
2022-11-10T10:53:44.466Z,86
2022-11-10T10:54:48.974Z,87
2022-11-10T10:55:58.707Z,86
2022-11-10T10:57:03.181Z,86
2022-11-10T10:58:18.189Z,86
2022-11-10T10:59:27.797Z,87
2022-11-10T11:00:32.455Z,86
2022-11-10T11:01:42.547Z,85
2022-11-10T11:02:46.959Z,86
2022-11-10T11:03:56.781Z,85
2022-11-10T11:05:01.204Z,85
2022-11-10T11:06:11.056Z,85
2022-11-10T11:07:16.069Z,85
2022-11-10T11:08:21.259Z,85
2022-11-10T11:09:25.228Z,85
2022-11-10T11:10:34.947Z,85
2022-11-10T11:11:39.511Z,85
2022-11-10T11:12:44.016Z,85
2022-11-10T11:13:48.286Z,85
2022-11-10T11:14:52.756Z,85
2022-11-10T11:16:07.704Z,85
2022-11-10T11:17:13.502Z,84
2022-11-10T11:18:21.147Z,84
2022-11-10T11:19:24.981Z,84
2022-11-10T11:20:34.620Z,84
2022-11-10T11:21:42.193Z,84
2022-11-10T11:22:54.768Z,84
2022-11-10T11:24:04.662Z,85
2022-11-10T11:25:14.661Z,84
2022-11-10T11:26:27.203Z,84
2022-11-10T11:27:41.803Z,84
2022-11-10T11:28:51.557Z,84
2022-11-10T11:30:06.506Z,84
2022-11-10T11:31:16.002Z,84
2022-11-10T11:32:20.726Z,84
2022-11-10T11:33:36.950Z,83
2022-11-10T11:34:46.575Z,84
2022-11-10T11:35:56.568Z,84
2022-11-10T11:37:12.101Z,83
2022-11-10T11:38:21.036Z,84
2022-11-10T11:39:30.412Z,84
2022-11-10T11:40:45.379Z,84
2022-11-10T11:41:57.332Z,84
2022-11-10T11:43:09.515Z,83
2022-11-10T11:44:24.341Z,83
2022-11-10T11:45:34.223Z,83
2022-11-10T11:46:48.878Z,83
2022-11-10T11:47:58.942Z,83
2022-11-10T11:49:11.872Z,83
2022-11-10T11:50:21.400Z,83
2022-11-10T11:51:33.447Z,83
2022-11-10T11:52:40.567Z,83
2022-11-10T11:53:52.943Z,83
2022-11-10T11:55:07.826Z,83
2022-11-10T11:56:22.893Z,83
2022-11-10T11:57:30.085Z,83
2022-11-10T11:58:46.844Z,83
2022-11-10T12:00:01.622Z,83
2022-11-10T12:01:14.318Z,83
2022-11-10T12:02:23.996Z,83
2022-11-10T12:03:31.140Z,83
2022-11-10T12:04:38.286Z,83
2022-11-10T12:05:42.925Z,83
2022-11-10T12:06:53.060Z,83
2022-11-10T12:08:00.335Z,83
2022-11-10T12:09:13.099Z,83
2022-11-10T12:10:22.497Z,83
2022-11-10T12:11:37.318Z,83
2022-11-10T12:12:47.262Z,83
2022-11-10T12:13:59.578Z,83
2022-11-10T12:15:09.419Z,83
2022-11-10T12:16:19.141Z,82
2022-11-10T12:17:31.546Z,83
2022-11-10T12:18:43.542Z,82
2022-11-10T12:19:56.018Z,82
2022-11-10T12:21:08.437Z,82
2022-11-10T12:22:18.650Z,82
2022-11-10T12:23:28.253Z,82
2022-11-10T12:24:43.541Z,82
2022-11-10T12:25:56.417Z,81
2022-11-10T12:27:11.125Z,82
2022-11-10T12:28:18.752Z,81
2022-11-10T12:29:25.864Z,81
2022-11-10T12:30:33.558Z,81
2022-11-10T12:31:38.182Z,80
2022-11-10T12:32:42.794Z,80
2022-11-10T12:33:50.257Z,80
2022-11-10T12:34:54.637Z,80
2022-11-10T12:36:01.893Z,79
2022-11-10T12:37:06.397Z,80
2022-11-10T12:38:14.160Z,80
2022-11-10T12:39:18.557Z,80
2022-11-10T12:40:25.830Z,80
2022-11-10T12:41:33.148Z,80
2022-11-10T12:42:37.641Z,80
2022-11-10T12:43:42.137Z,79
2022-11-10T12:44:56.946Z,78
2022-11-10T12:46:09.229Z,78
2022-11-10T12:47:34.352Z,78
2022-11-10T12:48:58.813Z,77
2022-11-10T12:50:08.940Z,78
2022-11-10T12:51:18.044Z,79
2022-11-10T12:52:37.791Z,81
2022-11-10T12:53:50.350Z,80
2022-11-10T12:55:03.955Z,81
2022-11-10T12:56:18.393Z,82
2022-11-10T12:57:51.229Z,81
2022-11-10T12:58:57.578Z,81
2022-11-10T13:00:19.402Z,81
2022-11-10T13:01:31.526Z,81
2022-11-10T13:03:00.296Z,82
2022-11-10T13:04:28.332Z,82
2022-11-10T13:05:38.008Z,81
2022-11-10T13:06:52.657Z,81
2022-11-10T13:08:06.279Z,81
2022-11-10T13:09:11.954Z,80
2022-11-10T13:10:28.504Z,81
2022-11-10T13:11:34.657Z,81
2022-11-10T13:12:40.380Z,81
2022-11-10T13:13:59.420Z,81
2022-11-10T13:15:01.893Z,80
2022-11-10T13:16:06.862Z,81
2022-11-10T13:17:12.568Z,81
2022-11-10T13:18:28.532Z,79
2022-11-10T13:19:34.256Z,80
2022-11-10T13:20:39.023Z,80
2022-11-10T13:21:46.802Z,79
2022-11-10T13:22:51.349Z,79
2022-11-10T13:23:55.758Z,79
2022-11-10T13:25:03.755Z,79
2022-11-10T13:26:15.912Z,79
2022-11-10T13:27:28.957Z,78
2022-11-10T13:28:35.308Z,78
2022-11-10T13:29:51.948Z,79
2022-11-10T13:30:59.600Z,79
2022-11-10T13:32:06.557Z,79
2022-11-10T13:33:15.353Z,78
2022-11-10T13:34:29.474Z,78
2022-11-10T13:35:35.440Z,77
2022-11-10T13:36:41.590Z,77
2022-11-10T13:37:46.980Z,77
2022-11-10T13:38:51.316Z,77
2022-11-10T13:39:57.221Z,77
2022-11-10T13:42:52.143Z,77
2022-11-10T13:43:59.489Z,76
2022-11-10T13:45:04.269Z,76
2022-11-10T13:46:20.239Z,77
2022-11-10T13:47:36.892Z,77
2022-11-10T13:48:49.764Z,77
2022-11-10T13:49:56.260Z,76
2022-11-10T13:51:02.956Z,77
2022-11-10T13:52:13.793Z,77
2022-11-10T13:53:25.640Z,77
2022-11-10T13:54:39.471Z,77
2022-11-10T13:55:55.759Z,77
2022-11-10T13:57:07.214Z,78
2022-11-10T13:58:21.087Z,78
2022-11-10T13:59:26.551Z,79
2022-11-10T14:00:33.024Z,80
2022-11-10T14:01:40.140Z,79
2022-11-10T14:02:46.268Z,80
2022-11-10T14:03:55.884Z,80
2022-11-10T14:05:01.171Z,80
2022-11-10T14:06:07.219Z,81
2022-11-10T14:07:15.179Z,80
2022-11-10T14:08:21.028Z,81
2022-11-10T14:09:26.609Z,80
2022-11-10T14:10:38.124Z,80
2022-11-10T14:11:50.327Z,81
2022-11-10T14:12:57.854Z,81
2022-11-10T14:14:04.017Z,80
2022-11-10T14:15:12.649Z,81
2022-11-10T14:16:18.204Z,81
2022-11-10T14:17:23.996Z,82
2022-11-10T14:18:33.350Z,83
2022-11-10T14:19:44.601Z,83
2022-11-10T14:20:50.000Z,84
2022-11-10T14:22:01.019Z,84
2022-11-10T14:23:09.596Z,84
2022-11-10T14:24:25.552Z,84
2022-11-10T14:25:33.545Z,84
2022-11-10T14:26:39.528Z,85
2022-11-10T14:27:45.757Z,84
2022-11-10T14:28:51.073Z,84
2022-11-10T14:29:56.678Z,84
2022-11-10T14:31:07.672Z,84
2022-11-10T14:32:18.388Z,84
2022-11-10T14:33:23.741Z,85
2022-11-10T14:34:30.550Z,85
2022-11-10T14:35:36.498Z,84
2022-11-10T14:36:50.547Z,85
2022-11-10T14:37:57.890Z,85
2022-11-10T14:39:04.868Z,85
2022-11-10T14:40:12.140Z,85
2022-11-10T14:41:18.317Z,84
2022-11-10T14:42:23.764Z,84
2022-11-10T14:43:32.350Z,84
2022-11-10T14:44:38.724Z,84
2022-11-10T14:45:44.316Z,84
2022-11-10T14:46:52.737Z,85
2022-11-10T14:47:57.908Z,85
2022-11-10T14:49:03.327Z,84
2022-11-10T14:50:09.145Z,84
2022-11-10T14:51:19.696Z,84
2022-11-10T14:52:25.344Z,85
2022-11-10T14:53:31.869Z,84
2022-11-10T14:54:38.425Z,85
2022-11-10T14:55:44.710Z,85
2022-11-10T14:56:50.892Z,85
2022-11-10T14:57:56.470Z,85
2022-11-10T14:59:09.946Z,84
2022-11-10T15:00:16.253Z,84
2022-11-10T15:01:22.759Z,85
2022-11-10T15:02:38.879Z,85
2022-11-10T15:03:44.296Z,85
2022-11-10T15:04:49.107Z,85
2022-11-10T15:05:54.215Z,86
2022-11-10T15:06:58.916Z,85
2022-11-10T15:08:03.365Z,86
2022-11-10T15:09:08.413Z,85
2022-11-10T15:10:18.201Z,85
2022-11-10T15:11:26.314Z,85
2022-11-10T15:12:40.952Z,85
2022-11-10T15:13:40.579Z,85
2022-11-10T15:14:45.535Z,85
2022-11-10T15:15:52.335Z,85
2022-11-10T15:17:06.952Z,85
2022-11-10T15:18:11.862Z,85
2022-11-10T15:19:24.399Z,86
2022-11-10T15:20:31.438Z,85
2022-11-10T15:21:35.989Z,85
2022-11-10T15:22:40.623Z,85
2022-11-10T15:23:45.373Z,86
2022-11-10T15:24:55.267Z,85
2022-11-10T15:25:59.904Z,85
2022-11-10T15:27:04.444Z,85
2022-11-10T15:28:09.517Z,86
2022-11-10T15:29:14.247Z,86
2022-11-10T15:30:21.286Z,85
2022-11-10T15:31:25.849Z,85
2022-11-10T15:32:30.454Z,85
2022-11-10T15:33:40.274Z,85
2022-11-10T15:34:49.880Z,86
2022-11-10T15:35:54.521Z,85
2022-11-10T15:36:59.074Z,85
2022-11-10T15:38:18.173Z,85
2022-11-10T15:39:21.044Z,85
2022-11-10T15:40:25.779Z,85
2022-11-10T15:41:35.617Z,85
2022-11-10T15:42:40.058Z,85
2022-11-10T15:43:44.518Z,85
2022-11-10T15:44:49.000Z,85
2022-11-10T15:45:53.618Z,85
2022-11-10T15:46:58.142Z,85